Time;durP1;ratioP1;P1;durP2;ratioP2;P2;SDS_P1;SDS_P2;PMS_P1;PMS_P2;Temp;Humidity;BMP_temperature;BMP_pressure;BME280_temperature;BME280_humidity;BME280_pressure;Samples;Min_cycle;Max_cycle;Signal;HPM_P1;HPM_P2
2022/10/28 00:01:11;;;;;;;;;;;16.00;84.40;;;;;;6130420;23;19929;-81
2022/10/28 00:03:39;;;;;;;;;;;16.00;84.80;;;;;;6129641;23;19975;-81
2022/10/28 00:06:07;;;;;;;;;;;16.00;90.30;;;;;;6130646;23;20393;-81
2022/10/28 00:08:34;;;;;;;;;;;15.60;94.10;;;;;;6155269;23;20032;-81
2022/10/28 00:11:09;;;;;;;;;;;15.50;95.00;;;;;;6143216;23;19928;-82
2022/10/28 00:13:36;;;;;;;;;;;15.40;95.10;;;;;;6154123;23;19928;-81
2022/10/28 00:16:07;;;;;;;;;;;15.30;94.60;;;;;;6154655;23;19956;-81
2022/10/28 00:18:34;;;;;;;;;;;15.20;94.90;;;;;;6153975;23;19921;-80
2022/10/28 00:21:02;;;;;;;;;;;15.20;93.90;;;;;;6154625;23;20257;-81
2022/10/28 00:23:28;;;;;;;;;;;15.20;93.10;;;;;;6153683;23;20389;-80
2022/10/28 00:26:02;;;;;;;;;;;15.30;91.70;;;;;;6154686;23;19921;-80
2022/10/28 00:28:28;;;;;;;;;;;15.40;90.60;;;;;;6154052;23;19927;-80
2022/10/28 00:30:55;;;;;;;;;;;15.50;90.20;;;;;;6154686;23;19931;-81
2022/10/28 00:33:22;;;;;;;;;;;15.60;90.80;;;;;;6155140;23;19920;-81
2022/10/28 00:35:48;;;;;;;;;;;15.60;92.60;;;;;;6154927;23;19991;-82
2022/10/28 00:38:15;;;;;;;;;;;15.50;94.10;;;;;;6154809;23;19956;-82
2022/10/28 00:40:42;;;;;;;;;;;15.50;94.70;;;;;;6154067;23;19992;-81
2022/10/28 00:43:10;;;;;;;;;;;15.40;96.50;;;;;;6154920;23;20334;-82
2022/10/28 00:45:37;;;;;;;;;;;15.30;97.50;;;;;;6154421;23;19991;-81
2022/10/28 00:48:05;;;;;;;;;;;15.10;98.20;;;;;;6154313;23;20007;-81
2022/10/28 00:50:43;;;;;;;;;;;15.10;98.40;;;;;;6154285;23;20338;-81
2022/10/28 00:53:21;;;;;;;;;;;15.00;98.90;;;;;;6154379;23;19928;-81
2022/10/28 00:55:48;;;;;;;;;;;14.90;98.70;;;;;;6154246;23;20006;-81
2022/10/28 00:58:16;;;;;;;;;;;14.90;99.30;;;;;;6153740;23;19931;-81
2022/10/28 01:00:43;;;;;;;;;;;14.80;99.00;;;;;;6153989;23;20237;-81
2022/10/28 01:03:09;;;;;;;;;;;14.80;98.60;;;;;;6154689;23;19931;-81
2022/10/28 01:05:38;;;;;;;;;;;14.80;97.40;;;;;;6154477;23;19996;-82
2022/10/28 01:08:05;;;;;;;;;;;14.70;97.70;;;;;;6154615;23;20329;-81
2022/10/28 01:10:42;;;;;;;;;;;14.70;95.80;;;;;;6153744;23;19952;-81
2022/10/28 01:13:21;;;;;;;;;;;14.80;95.30;;;;;;6154447;23;20253;-81
2022/10/28 01:15:51;;;;;;;;;;;14.80;95.00;;;;;;6153909;23;19920;-81
2022/10/28 01:18:32;;;;;;;;;;;14.70;95.00;;;;;;6155584;23;20305;-81
2022/10/28 01:20:59;;;;;;;;;;;14.80;95.30;;;;;;6153665;23;20338;-80
2022/10/28 01:23:26;;;;;;;;;;;14.80;92.70;;;;;;6154310;23;19920;-81
2022/10/28 01:26:07;;;;;;;;;;;15.00;91.50;;;;;;6153465;23;19921;-80
2022/10/28 01:28:43;;;;;;;;;;;15.10;91.40;;;;;;6154541;23;20351;-81
2022/10/28 01:31:14;;;;;;;;;;;15.10;91.20;;;;;;6153489;23;19924;-81
2022/10/28 01:34:00;;;;;;;;;;;15.20;90.70;;;;;;6154448;23;20000;-81
2022/10/28 01:36:36;;;;;;;;;;;15.20;90.20;;;;;;6153727;23;20314;-82
2022/10/28 01:39:19;;;;;;;;;;;15.20;89.90;;;;;;6153485;23;20337;-81
2022/10/28 01:42:18;;;;;;;;;;;15.20;89.60;;;;;;6154608;23;19952;-81
2022/10/28 01:44:52;;;;;;;;;;;15.20;88.70;;;;;;6105593;23;19941;-81
2022/10/28 01:47:24;;;;;;;;;;;15.30;91.00;;;;;;6153885;23;19925;-80
2022/10/28 01:50:06;;;;;;;;;;;15.20;93.20;;;;;;6153482;23;19948;-81
2022/10/28 01:52:33;;;;;;;;;;;15.00;95.40;;;;;;6153405;23;20015;-81
2022/10/28 01:55:19;;;;;;;;;;;14.90;96.40;;;;;;6154258;23;19920;-81
2022/10/28 01:57:47;;;;;;;;;;;14.70;98.90;;;;;;6152714;23;19927;-81
2022/10/28 02:00:14;;;;;;;;;;;14.60;98.70;;;;;;6154294;23;19995;-80
2022/10/28 02:02:41;;;;;;;;;;;14.50;99.00;;;;;;6153015;23;19948;-80
2022/10/28 02:05:27;;;;;;;;;;;14.40;99.90;;;;;;6154063;23;19921;-81
2022/10/28 02:07:57;;;;;;;;;;;14.30;99.90;;;;;;6153124;23;20003;-81
2022/10/28 02:10:32;;;;;;;;;;;14.00;99.90;;;;;;6153440;23;19999;-80
2022/10/28 02:13:01;;;;;;;;;;;14.00;99.90;;;;;;6153429;23;19920;-81
2022/10/28 02:15:28;;;;;;;;;;;14.00;99.90;;;;;;6153903;23;19920;-81
2022/10/28 02:18:13;;;;;;;;;;;13.90;99.90;;;;;;6152978;23;19999;-81
2022/10/28 02:20:45;;;;;;;;;;;13.80;99.90;;;;;;6152650;23;19921;-81
2022/10/28 02:23:12;;;;;;;;;;;13.70;99.90;;;;;;6153693;23;19920;-81
2022/10/28 02:25:57;;;;;;;;;;;13.80;99.90;;;;;;6153164;23;19997;-81
2022/10/28 02:28:31;;;;;;;;;;;13.80;99.90;;;;;;6153673;23;19947;-81
2022/10/28 02:31:04;;;;;;;;;;;13.70;99.90;;;;;;6152914;23;19927;-81
2022/10/28 02:33:33;;;;;;;;;;;13.80;99.90;;;;;;6129289;23;19925;-82
2022/10/28 02:36:09;;;;;;;;;;;13.80;99.90;;;;;;6152907;23;19927;-81
2022/10/28 02:38:42;;;;;;;;;;;13.80;99.90;;;;;;6153621;23;19999;-81
2022/10/28 02:41:17;;;;;;;;;;;13.80;99.90;;;;;;6153644;23;19931;-81
2022/10/28 02:43:46;;;;;;;;;;;13.80;99.90;;;;;;6153220;23;19931;-79
2022/10/28 02:46:13;;;;;;;;;;;13.70;99.90;;;;;;6153225;23;19927;-80
2022/10/28 02:48:42;;;;;;;;;;;13.60;99.90;;;;;;6153146;23;19926;-79
2022/10/28 02:51:17;;;;;;;;;;;13.60;99.90;;;;;;6153348;23;20360;-80
2022/10/28 02:53:49;;;;;;;;;;;13.50;99.90;;;;;;6154084;23;19924;-79
2022/10/28 02:56:16;;;;;;;;;;;13.40;99.90;;;;;;6152847;23;19921;-79
2022/10/28 02:58:44;;;;;;;;;;;13.40;99.90;;;;;;6152484;23;20246;-79
2022/10/28 03:01:11;;;;;;;;;;;13.40;99.90;;;;;;6155156;23;19931;-79
2022/10/28 03:03:37;;;;;;;;;;;13.30;99.90;;;;;;6152456;23;19944;-79
2022/10/28 03:06:04;;;;;;;;;;;13.30;99.90;;;;;;6153082;23;19924;-79
2022/10/28 03:08:31;;;;;;;;;;;13.20;99.90;;;;;;6153149;23;19944;-79
2022/10/28 03:10:58;;;;;;;;;;;13.10;99.90;;;;;;6152144;23;19929;-78
2022/10/28 03:13:24;;;;;;;;;;;13.00;99.90;;;;;;6152987;23;19920;-79
2022/10/28 03:15:51;;;;;;;;;;;13.00;99.90;;;;;;6152644;23;19946;-79
2022/10/28 03:18:18;;;;;;;;;;;13.10;99.90;;;;;;6153085;23;19987;-78
2022/10/28 03:20:45;;;;;;;;;;;13.10;99.90;;;;;;6152560;23;20269;-79
2022/10/28 03:23:12;;;;;;;;;;;13.10;99.90;;;;;;6153191;23;20235;-79
2022/10/28 03:25:39;;;;;;;;;;;13.30;99.90;;;;;;6152582;23;19925;-79
2022/10/28 03:28:06;;;;;;;;;;;13.50;99.90;;;;;;6153266;23;19940;-79
2022/10/28 03:30:32;;;;;;;;;;;13.60;99.40;;;;;;6153483;23;19948;-79
2022/10/28 03:32:59;;;;;;;;;;;13.80;98.20;;;;;;6152312;23;20334;-79
2022/10/28 03:35:26;;;;;;;;;;;13.80;97.50;;;;;;6153336;23;19943;-80
2022/10/28 03:37:52;;;;;;;;;;;14.00;98.50;;;;;;6152300;23;19996;-79
2022/10/28 03:40:19;;;;;;;;;;;14.00;99.90;;;;;;6153193;23;19924;-79
2022/10/28 03:42:46;;;;;;;;;;;14.00;99.90;;;;;;6152061;23;19927;-79
2022/10/28 03:45:13;;;;;;;;;;;13.90;99.90;;;;;;6152921;23;19943;-79
2022/10/28 03:47:39;;;;;;;;;;;13.90;99.90;;;;;;6152083;23;19921;-79
2022/10/28 03:50:06;;;;;;;;;;;13.80;99.90;;;;;;6152941;23;19928;-79
2022/10/28 03:52:33;;;;;;;;;;;13.70;99.90;;;;;;6153142;23;20257;-79
2022/10/28 03:55:00;;;;;;;;;;;13.70;99.90;;;;;;6152161;23;19928;-78
2022/10/28 03:57:29;;;;;;;;;;;13.80;99.90;;;;;;6152555;23;19920;-79
2022/10/28 03:59:56;;;;;;;;;;;13.80;98.80;;;;;;6153535;23;19992;-79
2022/10/28 04:02:23;;;;;;;;;;;13.90;98.00;;;;;;6152721;23;20289;-79
2022/10/28 04:04:49;;;;;;;;;;;14.00;97.20;;;;;;6151861;23;19955;-78
2022/10/28 04:07:16;;;;;;;;;;;14.10;97.50;;;;;;6152889;23;19927;-79
2022/10/28 04:09:43;;;;;;;;;;;14.10;99.40;;;;;;6151988;23;20352;-79
2022/10/28 04:12:10;;;;;;;;;;;14.10;99.60;;;;;;6128383;23;19992;-79
2022/10/28 04:14:37;;;;;;;;;;;14.10;98.60;;;;;;6128490;23;19959;-79
2022/10/28 04:17:03;;;;;;;;;;;14.20;98.20;;;;;;6127663;23;20350;-79
2022/10/28 04:19:30;;;;;;;;;;;14.20;97.30;;;;;;6128700;23;19921;-79
2022/10/28 04:21:57;;;;;;;;;;;14.20;95.60;;;;;;6126713;23;19952;-79
2022/10/28 04:24:23;;;;;;;;;;;14.30;93.90;;;;;;6128161;23;20004;-79
2022/10/28 04:26:50;;;;;;;;;;;14.40;92.60;;;;;;6127207;23;19920;-79
2022/10/28 04:29:18;;;;;;;;;;;14.50;91.50;;;;;;6154740;23;19991;-79
2022/10/28 04:31:44;;;;;;;;;;;14.70;90.70;;;;;;6129199;23;20256;-79
2022/10/28 04:34:16;;;;;;;;;;;14.70;90.40;;;;;;6131492;23;19992;-79
2022/10/28 04:36:43;;;;;;;;;;;14.80;91.50;;;;;;6129375;23;19959;-79
2022/10/28 04:39:10;;;;;;;;;;;14.70;93.00;;;;;;6130423;23;20253;-79
2022/10/28 04:41:36;;;;;;;;;;;14.70;94.50;;;;;;6129967;23;19999;-79
2022/10/28 04:44:03;;;;;;;;;;;14.70;95.90;;;;;;6129440;23;19925;-79
2022/10/28 04:46:30;;;;;;;;;;;14.60;97.00;;;;;;6129787;23;19921;-79
2022/10/28 04:48:57;;;;;;;;;;;14.50;97.00;;;;;;6128919;23;19920;-80
2022/10/28 04:51:23;;;;;;;;;;;14.40;95.90;;;;;;6128865;23;19924;-79
2022/10/28 04:53:50;;;;;;;;;;;14.40;93.70;;;;;;6128933;23;20396;-79
2022/10/28 04:56:17;;;;;;;;;;;14.50;91.70;;;;;;6129530;23;19928;-79
2022/10/28 04:58:43;;;;;;;;;;;14.60;91.10;;;;;;6128984;23;19925;-79
2022/10/28 05:01:10;;;;;;;;;;;14.60;90.60;;;;;;6130000;23;19926;-80
2022/10/28 05:03:37;;;;;;;;;;;14.70;91.00;;;;;;6129872;23;20238;-79
2022/10/28 05:06:04;;;;;;;;;;;14.70;92.20;;;;;;6128979;23;19980;-79
2022/10/28 05:08:30;;;;;;;;;;;14.70;93.30;;;;;;6129434;23;20257;-79
2022/10/28 05:10:57;;;;;;;;;;;14.60;94.40;;;;;;6141369;23;19921;-79
2022/10/28 05:13:24;;;;;;;;;;;14.60;94.80;;;;;;6153930;23;19931;-80
2022/10/28 05:15:50;;;;;;;;;;;14.50;95.30;;;;;;6153557;23;19921;-79
2022/10/28 05:18:17;;;;;;;;;;;14.40;95.70;;;;;;6153869;23;19927;-79
2022/10/28 05:20:44;;;;;;;;;;;14.30;97.10;;;;;;6153320;23;20003;-79
2022/10/28 05:23:11;;;;;;;;;;;14.10;97.30;;;;;;6154115;23;19999;-79
2022/10/28 05:25:37;;;;;;;;;;;14.10;95.50;;;;;;6154326;23;20333;-79
2022/10/28 05:28:04;;;;;;;;;;;14.10;94.20;;;;;;6153125;23;21063;-79
2022/10/28 05:30:31;;;;;;;;;;;14.20;92.40;;;;;;6154047;23;19921;-79
2022/10/28 05:32:59;;;;;;;;;;;14.30;91.10;;;;;;6153076;23;20000;-79
2022/10/28 05:35:27;;;;;;;;;;;14.50;90.20;;;;;;6155317;23;19921;-79
2022/10/28 05:37:54;;;;;;;;;;;14.60;89.50;;;;;;6153097;23;19931;-79
2022/10/28 05:40:20;;;;;;;;;;;14.60;89.30;;;;;;6153821;23;19996;-79
2022/10/28 05:42:47;;;;;;;;;;;14.60;89.20;;;;;;6152803;23;19928;-79
2022/10/28 05:45:14;;;;;;;;;;;14.60;90.90;;;;;;6153671;23;19969;-79
2022/10/28 05:47:42;;;;;;;;;;;14.50;92.10;;;;;;6155293;23;19921;-79
2022/10/28 05:50:10;;;;;;;;;;;14.50;93.40;;;;;;6152919;23;19999;-79
2022/10/28 05:52:36;;;;;;;;;;;14.40;95.10;;;;;;6153913;23;19920;-80
2022/10/28 05:55:04;;;;;;;;;;;14.30;96.00;;;;;;6153769;23;19924;-79
2022/10/28 05:57:34;;;;;;;;;;;14.20;96.40;;;;;;6154132;23;19952;-79
2022/10/28 06:00:01;;;;;;;;;;;14.10;96.20;;;;;;6153150;23;19995;-79
2022/10/28 06:02:28;;;;;;;;;;;14.00;95.30;;;;;;6153755;23;19921;-79
2022/10/28 06:04:54;;;;;;;;;;;14.00;95.50;;;;;;6152923;23;19920;-79
2022/10/28 06:07:23;;;;;;;;;;;14.00;95.00;;;;;;6153624;23;19927;-79
2022/10/28 06:09:50;;;;;;;;;;;14.10;93.40;;;;;;6152748;23;19988;-78
2022/10/28 06:12:16;;;;;;;;;;;14.20;92.30;;;;;;6128825;23;19952;-78
2022/10/28 06:14:43;;;;;;;;;;;14.30;91.50;;;;;;6129240;23;19925;-78
2022/10/28 06:17:10;;;;;;;;;;;14.40;90.30;;;;;;6127646;23;19920;-77
2022/10/28 06:19:36;;;;;;;;;;;14.60;88.80;;;;;;6128068;23;20333;-78
2022/10/28 06:22:03;;;;;;;;;;;14.70;87.60;;;;;;6127846;23;19952;-79
2022/10/28 06:24:30;;;;;;;;;;;14.80;85.40;;;;;;6130408;23;19991;-78
2022/10/28 06:26:56;;;;;;;;;;;14.90;84.00;;;;;;6128943;23;19955;-78
2022/10/28 06:29:23;;;;;;;;;;;15.00;84.90;;;;;;6129684;23;20260;-78
2022/10/28 06:31:50;;;;;;;;;;;15.10;83.70;;;;;;6153733;23;19959;-78
2022/10/28 06:34:16;;;;;;;;;;;15.10;82.90;;;;;;6128927;23;20270;-77
2022/10/28 06:36:43;;;;;;;;;;;15.20;82.70;;;;;;6128739;23;19944;-78
2022/10/28 06:39:10;;;;;;;;;;;15.20;82.90;;;;;;6127523;23;20302;-78
2022/10/28 06:41:36;;;;;;;;;;;15.30;81.60;;;;;;6128444;23;19920;-78
2022/10/28 06:44:03;;;;;;;;;;;15.30;81.50;;;;;;6127921;23;19999;-77
2022/10/28 06:46:30;;;;;;;;;;;15.40;81.80;;;;;;6128103;23;19992;-78
2022/10/28 06:48:57;;;;;;;;;;;15.40;81.60;;;;;;6127957;23;20360;-78
2022/10/28 06:51:23;;;;;;;;;;;15.40;81.30;;;;;;6154408;23;19925;-78
2022/10/28 06:53:50;;;;;;;;;;;15.50;81.20;;;;;;6150965;23;19988;-78
2022/10/28 06:56:17;;;;;;;;;;;15.50;90.40;;;;;;6127601;23;19999;-78
2022/10/28 06:58:49;;;;;;;;;;;15.40;87.60;;;;;;6127637;23;20364;-78
2022/10/28 07:01:16;;;;;;;;;;;15.40;83.90;;;;;;6126863;23;19948;-78
2022/10/28 07:03:43;;;;;;;;;;;15.50;81.10;;;;;;6126928;23;19924;-78
2022/10/28 07:06:10;;;;;;;;;;;15.60;81.20;;;;;;6152319;23;19920;-78
2022/10/28 07:08:37;;;;;;;;;;;15.70;79.40;;;;;;6127792;23;20345;-78
2022/10/28 07:11:03;;;;;;;;;;;15.80;79.90;;;;;;6140510;23;20367;-78
2022/10/28 07:13:30;;;;;;;;;;;16.00;79.60;;;;;;6151522;23;20367;-78
2022/10/28 07:15:58;;;;;;;;;;;16.10;80.90;;;;;;6151098;23;20345;-79
2022/10/28 07:18:26;;;;;;;;;;;16.10;82.90;;;;;;6151809;23;19921;-78
2022/10/28 07:20:52;;;;;;;;;;;16.10;86.00;;;;;;6151088;23;20003;-78
2022/10/28 07:23:19;;;;;;;;;;;16.10;89.00;;;;;;6151802;23;19929;-78
2022/10/28 07:25:54;;;;;;;;;;;16.00;90.70;;;;;;6151826;23;19920;-78
2022/10/28 07:28:21;;;;;;;;;;;15.90;91.80;;;;;;6151210;23;19924;-78
2022/10/28 07:30:48;;;;;;;;;;;15.80;90.50;;;;;;6151643;23;19926;-78
2022/10/28 07:33:15;;;;;;;;;;;15.80;90.00;;;;;;6150700;23;20338;-78
2022/10/28 07:35:43;;;;;;;;;;;15.80;89.70;;;;;;6151682;23;20416;-78
2022/10/28 07:38:10;;;;;;;;;;;15.80;91.20;;;;;;6150640;23;19971;-79
2022/10/28 07:40:37;;;;;;;;;;;15.80;92.20;;;;;;6151998;23;20261;-78
2022/10/28 07:43:03;;;;;;;;;;;15.80;92.30;;;;;;6151023;23;20347;-78
2022/10/28 07:45:30;;;;;;;;;;;15.80;92.10;;;;;;6151911;23;19991;-78
2022/10/28 07:47:57;;;;;;;;;;;15.80;90.80;;;;;;6151194;23;20250;-79
2022/10/28 07:50:23;;;;;;;;;;;15.90;90.00;;;;;;6152593;23;19934;-78
2022/10/28 07:52:50;;;;;;;;;;;15.90;87.20;;;;;;6152871;23;19928;-79
2022/10/28 07:55:20;;;;;;;;;;;15.90;85.60;;;;;;6150721;23;20398;-78
2022/10/28 07:57:47;;;;;;;;;;;16.00;82.70;;;;;;6152028;23;19920;-78
2022/10/28 08:00:14;;;;;;;;;;;16.20;92.70;;;;;;6151717;23;19995;-78
2022/10/28 08:02:41;;;;;;;;;;;16.20;94.00;;;;;;6154352;23;20389;-78
2022/10/28 08:05:08;;;;;;;;;;;16.50;91.50;;;;;;6152655;23;19977;-79
2022/10/28 08:07:35;;;;;;;;;;;16.70;90.00;;;;;;6154009;23;19931;-79
2022/10/28 08:10:05;;;;;;;;;;;16.90;87.80;;;;;;6154331;23;20011;-79
2022/10/28 08:12:32;;;;;;;;;;;17.00;77.00;;;;;;6155521;23;20308;-79
2022/10/28 08:14:58;;;;;;;;;;;17.20;73.90;;;;;;6154227;23;20051;-79
2022/10/28 08:17:25;;;;;;;;;;;17.50;73.40;;;;;;6154419;23;19922;-79
2022/10/28 08:19:52;;;;;;;;;;;17.80;71.90;;;;;;6155299;23;19996;-78
2022/10/28 08:22:18;;;;;;;;;;;18.00;68.70;;;;;;6154846;23;20339;-78
2022/10/28 08:24:45;;;;;;;;;;;18.20;67.00;;;;;;6154772;23;19920;-79
2022/10/28 08:27:12;;;;;;;;;;;18.40;66.90;;;;;;6154046;23;19991;-78
2022/10/28 08:29:38;;;;;;;;;;;18.50;70.30;;;;;;6154264;23;19952;-78
2022/10/28 08:32:08;;;;;;;;;;;18.60;71.50;;;;;;6153285;23;19924;-79
2022/10/28 08:34:35;;;;;;;;;;;18.60;71.00;;;;;;6154600;23;20265;-79
2022/10/28 08:37:08;;;;;;;;;;;18.60;72.60;;;;;;6153872;23;20341;-79
2022/10/28 08:39:34;;;;;;;;;;;18.60;76.20;;;;;;6154420;23;19921;-78
2022/10/28 08:42:18;;;;;;;;;;;18.50;78.50;;;;;;6153660;23;19952;-79
2022/10/28 08:44:51;;;;;;;;;;;18.50;80.20;;;;;;6154776;23;20310;-78
2022/10/28 08:47:27;;;;;;;;;;;18.50;78.40;;;;;;6153747;23;19928;-78
2022/10/28 08:49:55;;;;;;;;;;;18.50;74.40;;;;;;6154639;23;19929;-78
2022/10/28 08:52:22;;;;;;;;;;;18.50;70.00;;;;;;6154118;23;20004;-79
2022/10/28 08:55:04;;;;;;;;;;;18.60;69.00;;;;;;6154881;23;20389;-78
2022/10/28 08:57:33;;;;;;;;;;;18.70;72.00;;;;;;6155831;23;19920;-80
2022/10/28 09:00:02;;;;;;;;;;;18.70;75.10;;;;;;6157421;23;19921;-79
2022/10/28 09:02:31;;;;;;;;;;;18.70;73.00;;;;;;6130118;23;19999;-78
2022/10/28 09:05:06;;;;;;;;;;;18.80;72.60;;;;;;6155115;23;20412;-79
2022/10/28 09:07:35;;;;;;;;;;;18.90;75.10;;;;;;6154639;23;19926;-79
2022/10/28 09:10:03;;;;;;;;;;;19.10;71.40;;;;;;6156115;23;19951;-80
2022/10/28 09:12:47;;;;;;;;;;;19.20;66.00;;;;;;6156194;23;19952;-79
2022/10/28 09:15:49;;;;;;;;;;;19.40;62.90;;;;;;6154621;23;19948;-79
2022/10/28 09:18:18;;;;;;;;;;;19.40;62.20;;;;;;6097233;23;19921;-79
2022/10/28 09:20:44;;;;;;;;;;;19.50;60.90;;;;;;6134086;23;20261;-79
2022/10/28 09:23:31;;;;;;;;;;;19.50;63.00;;;;;;6153372;23;19944;-79
2022/10/28 09:25:57;;;;;;;;;;;19.60;64.10;;;;;;6156299;23;19920;-80
2022/10/28 09:28:45;;;;;;;;;;;19.80;63.10;;;;;;6156937;23;19947;-79
2022/10/28 09:31:12;;;;;;;;;;;19.80;62.50;;;;;;6154998;23;20053;-79
2022/10/28 09:33:45;;;;;;;;;;;20.00;64.60;;;;;;6157983;23;20036;-79
2022/10/28 09:36:13;;;;;;;;;;;20.00;65.00;;;;;;6155616;23;19924;-80
2022/10/28 09:38:41;;;;;;;;;;;20.00;65.30;;;;;;6156180;23;19927;-81
2022/10/28 09:41:20;;;;;;;;;;;20.10;66.40;;;;;;6155171;23;20308;-82
2022/10/28 09:43:48;;;;;;;;;;;20.10;61.60;;;;;;6155370;23;19992;-82
2022/10/28 09:46:15;;;;;;;;;;;20.30;61.30;;;;;;6156177;23;19928;-81
2022/10/28 09:48:47;;;;;;;;;;;20.40;58.20;;;;;;6155403;23;20231;-81
2022/10/28 09:51:20;;;;;;;;;;;20.50;58.80;;;;;;6154623;23;20516;-80
2022/10/28 09:53:49;;;;;;;;;;;20.60;57.40;;;;;;6153360;23;19921;-81
2022/10/28 09:56:16;;;;;;;;;;;20.70;57.30;;;;;;6154019;23;20007;-80
2022/10/28 09:58:45;;;;;;;;;;;20.70;58.00;;;;;;6153327;23;20389;-80
2022/10/28 10:01:12;;;;;;;;;;;20.70;59.10;;;;;;6154110;23;19944;-81
2022/10/28 10:03:40;;;;;;;;;;;20.80;59.80;;;;;;6153509;23;19928;-81
2022/10/28 10:06:12;;;;;;;;;;;20.70;59.60;;;;;;6153767;23;19952;-81
2022/10/28 10:08:40;;;;;;;;;;;20.80;59.70;;;;;;6153451;23;20372;-80
2022/10/28 10:11:14;;;;;;;;;;;20.80;59.60;;;;;;6155315;23;19927;-80
2022/10/28 10:13:42;;;;;;;;;;;20.90;62.20;;;;;;6128705;23;19920;-80
2022/10/28 10:16:13;;;;;;;;;;;21.00;60.10;;;;;;6129392;23;20000;-80
2022/10/28 10:18:45;;;;;;;;;;;21.20;58.30;;;;;;6128392;23;19921;-81
2022/10/28 10:21:13;;;;;;;;;;;21.30;59.10;;;;;;6129092;23;19952;-81
2022/10/28 10:23:40;;;;;;;;;;;21.50;59.10;;;;;;6128001;23;19953;-81
2022/10/28 10:26:10;;;;;;;;;;;21.70;57.80;;;;;;6129808;23;19991;-80
2022/10/28 10:28:45;;;;;;;;;;;21.90;56.30;;;;;;6126256;23;19960;-81
2022/10/28 10:31:17;;;;;;;;;;;22.00;56.40;;;;;;6128696;23;19921;-81
2022/10/28 10:33:47;;;;;;;;;;;22.10;54.70;;;;;;6127868;23;20011;-81
2022/10/28 10:36:16;;;;;;;;;;;22.10;54.50;;;;;;6128561;23;19924;-80
2022/10/28 10:39:01;;;;;;;;;;;22.10;52.50;;;;;;6127760;23;19947;-80
2022/10/28 10:41:43;;;;;;;;;;;22.20;53.30;;;;;;6128167;23;19959;-80
2022/10/28 10:44:19;;;;;;;;;;;22.30;54.80;;;;;;6128932;23;19921;-81
2022/10/28 10:46:46;;;;;;;;;;;22.40;53.00;;;;;;6128567;23;19928;-80
2022/10/28 10:49:14;;;;;;;;;;;22.30;53.40;;;;;;6129350;23;19920;-80
2022/10/28 10:51:50;;;;;;;;;;;22.20;53.50;;;;;;6128795;23;19921;-81
2022/10/28 10:54:18;;;;;;;;;;;22.50;54.10;;;;;;6155242;23;19959;-80
2022/10/28 10:56:44;;;;;;;;;;;22.70;51.20;;;;;;6127956;23;19952;-80
2022/10/28 10:59:28;;;;;;;;;;;22.80;50.80;;;;;;6126467;23;19924;-80
2022/10/28 11:01:55;;;;;;;;;;;23.00;51.50;;;;;;6115254;23;19943;-80
2022/10/28 11:04:24;;;;;;;;;;;23.20;50.20;;;;;;6128366;23;19976;-80
2022/10/28 11:06:55;;;;;;;;;;;23.40;50.60;;;;;;6127478;23;20330;-81
2022/10/28 11:09:27;;;;;;;;;;;23.60;50.50;;;;;;6154338;23;20337;-81
2022/10/28 11:11:55;;;;;;;;;;;23.70;49.30;;;;;;6151644;23;19999;-81
2022/10/28 11:14:27;;;;;;;;;;;23.90;49.70;;;;;;6152857;23;19995;-81
2022/10/28 11:16:57;;;;;;;;;;;24.10;49.20;;;;;;6151895;23;19999;-81
2022/10/28 11:19:27;;;;;;;;;;;24.20;48.60;;;;;;6152613;23;20364;-81
2022/10/28 11:22:00;;;;;;;;;;;24.40;48.40;;;;;;6151974;23;19971;-81
2022/10/28 11:24:26;;;;;;;;;;;24.50;47.80;;;;;;6151965;23;19924;-81
2022/10/28 11:26:56;;;;;;;;;;;24.50;47.00;;;;;;6153207;23;19951;-81
2022/10/28 11:29:23;;;;;;;;;;;23.90;47.60;;;;;;6152612;23;19927;-81
2022/10/28 11:31:58;;;;;;;;;;;23.70;51.20;;;;;;6151992;23;19956;-81
2022/10/28 11:34:34;;;;;;;;;;;24.10;49.40;;;;;;6152137;23;19999;-81
2022/10/28 11:37:08;;;;;;;;;;;24.20;48.60;;;;;;6152482;23;19948;-81
2022/10/28 11:39:41;;;;;;;;;;;24.50;48.60;;;;;;6153283;23;19932;-81
2022/10/28 11:42:13;;;;;;;;;;;24.70;48.60;;;;;;6154163;23;19921;-80
2022/10/28 11:44:40;;;;;;;;;;;24.90;46.50;;;;;;6154414;23;19927;-81
2022/10/28 11:47:15;;;;;;;;;;;25.00;47.40;;;;;;6153556;23;20297;-81
2022/10/28 11:50:01;;;;;;;;;;;25.00;45.90;;;;;;6155006;23;19995;-80
2022/10/28 11:52:27;;;;;;;;;;;24.90;47.10;;;;;;6154982;23;20249;-80
2022/10/28 11:55:06;;;;;;;;;;;24.80;47.40;;;;;;6155608;23;19929;-80
2022/10/28 11:57:45;;;;;;;;;;;24.70;46.40;;;;;;6154495;23;20343;-80
2022/10/28 12:00:30;;;;;;;;;;;24.60;46.90;;;;;;6155955;23;19924;-80
2022/10/28 12:02:57;;;;;;;;;;;24.40;47.80;;;;;;6155095;23;20288;-80
2022/10/28 12:05:43;;;;;;;;;;;24.30;48.40;;;;;;6154361;23;19925;-80
2022/10/28 12:08:10;;;;;;;;;;;24.10;47.90;;;;;;6154655;23;20441;-81
2022/10/28 12:10:52;;;;;;;;;;;23.90;48.20;;;;;;6154357;23;19999;-80
2022/10/28 12:13:31;;;;;;;;;;;23.80;49.70;;;;;;6153837;23;19951;-81
2022/10/28 12:15:57;;;;;;;;;;;23.70;50.70;;;;;;6154925;23;20389;-80
2022/10/28 12:18:29;;;;;;;;;;;23.50;50.50;;;;;;6154523;23;20388;-81
2022/10/28 12:21:05;;;;;;;;;;;23.60;51.70;;;;;;6155599;23;19921;-81
2022/10/28 12:23:33;;;;;;;;;;;23.60;52.70;;;;;;6154315;23;20008;-81
2022/10/28 12:26:01;;;;;;;;;;;23.70;51.20;;;;;;6154830;23;19927;-81
2022/10/28 12:28:39;;;;;;;;;;;23.60;51.50;;;;;;6154664;23;19921;-80
2022/10/28 12:31:08;;;;;;;;;;;23.60;50.20;;;;;;6154752;23;19921;-80
2022/10/28 12:33:38;;;;;;;;;;;23.60;50.40;;;;;;6154253;23;20249;-81
2022/10/28 12:36:07;;;;;;;;;;;23.50;50.20;;;;;;6154602;23;20458;-80
2022/10/28 12:38:39;;;;;;;;;;;23.40;51.10;;;;;;6154130;23;19948;-81
2022/10/28 12:41:11;;;;;;;;;;;23.30;53.20;;;;;;6152555;23;19940;-80
2022/10/28 12:43:41;;;;;;;;;;;23.00;54.00;;;;;;6153184;23;20253;-81
2022/10/28 12:46:18;;;;;;;;;;;23.30;55.90;;;;;;6153883;23;19925;-80
2022/10/28 12:48:50;;;;;;;;;;;23.50;56.40;;;;;;6153663;23;19924;-81
2022/10/28 12:51:20;;;;;;;;;;;23.70;55.10;;;;;;6154251;23;19920;-81
2022/10/28 12:54:05;;;;;;;;;;;23.90;54.10;;;;;;6153837;23;20258;-81
2022/10/28 12:56:31;;;;;;;;;;;24.00;53.40;;;;;;6153629;23;19996;-81
2022/10/28 12:59:17;;;;;;;;;;;24.10;52.80;;;;;;6154712;23;19927;-81
2022/10/28 13:01:45;;;;;;;;;;;24.10;51.20;;;;;;6154019;23;20003;-81
2022/10/28 13:04:13;;;;;;;;;;;24.10;53.00;;;;;;6154442;23;19920;-81
2022/10/28 13:06:58;;;;;;;;;;;24.30;52.20;;;;;;6152721;23;19924;-81
2022/10/28 13:09:29;;;;;;;;;;;24.20;51.20;;;;;;6152688;23;20005;-81
2022/10/28 13:12:04;;;;;;;;;;;24.00;53.20;;;;;;6155829;23;19921;-81
2022/10/28 13:14:49;;;;;;;;;;;24.30;52.80;;;;;;6153700;23;19947;-81
2022/10/28 13:17:35;;;;;;;;;;;24.30;52.10;;;;;;6154858;23;19921;-80
2022/10/28 13:20:17;;;;;;;;;;;24.60;51.40;;;;;;6153639;23;19988;-81
2022/10/28 13:22:46;;;;;;;;;;;24.80;51.30;;;;;;6153674;23;20004;-80
2022/10/28 13:25:22;;;;;;;;;;;24.70;51.10;;;;;;6154452;23;20308;-80
2022/10/28 13:27:56;;;;;;;;;;;24.30;51.10;;;;;;6152910;23;20234;-80
2022/10/28 13:30:24;;;;;;;;;;;24.00;52.10;;;;;;6154067;23;19943;-80
2022/10/28 13:33:16;;;;;;;;;;;23.90;52.40;;;;;;6153278;23;19955;-80
2022/10/28 13:35:43;;;;;;;;;;;23.90;54.10;;;;;;6149113;23;19928;-81
2022/10/28 13:38:11;;;;;;;;;;;23.80;52.50;;;;;;6153871;23;19927;-80
2022/10/28 13:40:38;;;;;;;;;;;23.80;53.40;;;;;;6153285;23;19948;-82
2022/10/28 13:43:15;;;;;;;;;;;24.00;53.70;;;;;;6154435;23;20004;-80
2022/10/28 13:45:53;;;;;;;;;;;24.00;52.40;;;;;;6153610;23;19971;-80
2022/10/28 13:48:29;;;;;;;;;;;24.30;51.50;;;;;;6153886;23;19921;-80
2022/10/28 13:51:25;;;;;;;;;;;24.30;52.20;;;;;;6153694;23;19975;-80
2022/10/28 13:53:55;;;;;;;;;;;24.00;52.70;;;;;;6135656;23;19991;-80
2022/10/28 13:56:34;;;;;;;;;;;24.00;52.60;;;;;;6154297;23;19948;-80
2022/10/28 13:59:14;;;;;;;;;;;23.70;54.10;;;;;;6152804;23;19975;-80
2022/10/28 14:01:52;;;;;;;;;;;23.60;53.40;;;;;;6152313;23;19920;-80
2022/10/28 14:04:33;;;;;;;;;;;23.60;54.70;;;;;;6153549;23;20254;-80
2022/10/28 14:07:00;;;;;;;;;;;23.60;54.60;;;;;;6153226;23;19928;-81
2022/10/28 14:09:29;;;;;;;;;;;23.50;55.60;;;;;;6154048;23;19936;-80
2022/10/28 14:12:07;;;;;;;;;;;23.30;55.90;;;;;;6152821;23;19995;-81
2022/10/28 14:14:34;;;;;;;;;;;23.30;57.10;;;;;;6153428;23;20256;-80
2022/10/28 14:17:01;;;;;;;;;;;23.50;56.70;;;;;;6153243;23;19924;-80
2022/10/28 14:19:27;;;;;;;;;;;23.50;57.40;;;;;;6153647;23;19927;-80
2022/10/28 14:22:07;;;;;;;;;;;23.40;56.90;;;;;;6152737;23;19920;-81
2022/10/28 14:24:37;;;;;;;;;;;23.40;57.00;;;;;;6153967;23;19932;-81
2022/10/28 14:27:14;;;;;;;;;;;23.20;58.90;;;;;;6152912;23;19925;-81
2022/10/28 14:29:41;;;;;;;;;;;23.40;57.90;;;;;;6152448;23;19979;-82
2022/10/28 14:32:27;;;;;;;;;;;23.40;58.80;;;;;;6153781;23;19947;-80
2022/10/28 14:34:55;;;;;;;;;;;23.50;57.40;;;;;;6152984;23;19924;-80